Home > Products > Valid Products > MTR

000
SAUS43 KABR 010702
MTR8D3
METAR K8D3 010656Z AUTO 00000KT 16/16 A2988 RMK AO1 SLP101 T01610156





000
SAUS43 KABR 010603
MTR8D3
METAR K8D3 010556Z AUTO 00000KT 18/17 A2988 RMK AO1 SLP100 T01780167
10244 20178 403000178 50002





000
SAUS43 KABR 010603
MTR8D3
METAR K8D3 010556Z AUTO 00000KT 18/17 A2988 RMK AO1 SLP100 T01780167
10244 20178 403000178 50002





000
SAUS43 KABR 010503
MTR8D3
METAR K8D3 010456Z AUTO 31003KT 19/17 A2989 RMK AO1 SLP103 T01890167





000
SAUS43 KABR 010503
MTR8D3
METAR K8D3 010456Z AUTO 31003KT 19/17 A2989 RMK AO1 SLP103 T01890167





000
SAUS43 KABR 010403
MTR8D3
METAR K8D3 010356Z AUTO 34006KT 18/17 A2988 RMK AO1 SLP099 T01830172





000
SAUS43 KABR 010303
MTR8D3
METAR K8D3 010256Z AUTO 29004KT 20/18 A2988 RMK AO1 SLP099 T02000178
53015





000
SAUS43 KABR 010303
MTR8D3
METAR K8D3 010256Z AUTO 29004KT 20/18 A2988 RMK AO1 SLP099 T02000178
53015





000
SAUS43 KABR 010203
MTR8D3
METAR K8D3 010156Z AUTO 31004KT 22/19 A2986 RMK AO1 SLP092 T02170189





000
SAUS43 KABR 010102
MTR8D3
METAR K8D3 010056Z AUTO 32005KT 23/19 A2984 RMK AO1 SLP086 T02280194





000
SAUS43 KABR 010003
MTR8D3
METAR K8D3 312356Z AUTO 36004KT 24/19 A2983 RMK AO1 SLP083 T02440189
10300 20244 50005





000
SAUS43 KABR 010003
MTR8D3
METAR K8D3 312356Z AUTO 36004KT 24/19 A2983 RMK AO1 SLP083 T02440189
10300 20244 50005





000
SAUS43 KABR 312303
MTR8D3
METAR K8D3 312256Z AUTO 36010KT 27/19 A2984 RMK AO1 SLP084 T02670194





000
SAUS43 KABR 312303
MTR8D3
METAR K8D3 312256Z AUTO 36010KT 27/19 A2984 RMK AO1 SLP084 T02670194





000
SAUS43 KABR 312203
MTR8D3
METAR K8D3 312156Z AUTO 33006KT 28/19 A2983 RMK AO1 SLP080 T02830189





000
SAUS43 KABR 312103
MTR8D3
METAR K8D3 312056Z AUTO 33008KT 28/18 A2981 RMK AO1 SLP075 T02780183
52012





000
SAUS43 KABR 312103
MTR8D3
METAR K8D3 312056Z AUTO 33008KT 28/18 A2981 RMK AO1 SLP075 T02780183
52012





000
SAUS43 KABR 312003
MTR8D3
METAR K8D3 311956Z AUTO 34011KT 29/18 A2980 RMK AO1 SLP068 T02940183





000
SAUS43 KABR 311903
MTR8D3
METAR K8D3 311856Z AUTO 27009KT 28/17 A2979 RMK AO1 SLP067 T02830172





000
SAUS43 KABR 311803
MTR8D3
METAR K8D3 311756Z AUTO 28011KT 29/17 A2978 RMK AO1 SLP062 T02940167
10294 20222 50024





000
SAUS43 KABR 311803
MTR8D3
METAR K8D3 311756Z AUTO 28011KT 29/17 A2978 RMK AO1 SLP062 T02940167
10294 20222 50024





000
SAUS43 KABR 311702
MTR8D3
METAR K8D3 311656Z AUTO 25009KT 27/16 A2979 RMK AO1 PK WND
24028/1622 SLP066 T02670161





000
SAUS43 KABR 311702
MTR8D3
METAR K8D3 311656Z AUTO 25009KT 27/16 A2979 RMK AO1 PK WND
24028/1622 SLP066 T02670161





000
SAUS43 KABR 311603
MTR8D3
METAR K8D3 311556Z AUTO 25011KT 27/17 A2977 RMK AO1 SLP064 T02720167





000
SAUS43 KABR 311503
MTR8D3
METAR K8D3 311456Z AUTO 22018G27KT 26/16 A2970 RMK AO1 PK WND
24033/1423 SLP041 T02560161 50009





000
SAUS43 KABR 311503
MTR8D3
METAR K8D3 311456Z AUTO 22018G27KT 26/16 A2970 RMK AO1 PK WND
24033/1423 SLP041 T02560161 50009





000
SAUS43 KABR 311403
MTR8D3
METAR K8D3 311356Z AUTO 23018G27KT 23/16 A2971 RMK AO1 PK WND
23031/1314 SLP042 T02330156





000
SAUS43 KABR 311403
MTR8D3
METAR K8D3 311356Z AUTO 23018G27KT 23/16 A2971 RMK AO1 PK WND
23031/1314 SLP042 T02330156





000
SAUS43 KABR 311302
MTR8D3
METAR K8D3 311256Z AUTO 23020G30KT 23/16 A2970 RMK AO1 PK WND
22035/1158 SLP036 T02280156





000
SAUS43 KABR 311302
MTR8D3
METAR K8D3 311256Z AUTO 23020G30KT 23/16 A2970 RMK AO1 PK WND
22035/1158 SLP036 T02280156





000
SAUS43 KABR 311203
MTR8D3
METAR K8D3 311156Z AUTO 22024G32KT 23/15 A2968 RMK AO1 PK WND
22036/1125 SLP028 T02280150 10228 20200 56013





000
SAUS43 KABR 311203
MTR8D3
METAR K8D3 311156Z AUTO 22024G32KT 23/15 A2968 RMK AO1 PK WND
22036/1125 SLP028 T02280150 10228 20200 56013





000
SAUS43 KABR 311102
MTR8D3
METAR K8D3 311056Z AUTO 23021G34KT 23/15 A2968 RMK AO1 PK WND
22034/1053 SLP029 T02280150





000
SAUS43 KABR 311102
MTR8D3
METAR K8D3 311056Z AUTO 23021G34KT 23/15 A2968 RMK AO1 PK WND
22034/1053 SLP029 T02280150





000
SAUS43 KABR 311003
MTR8D3
METAR K8D3 310956Z AUTO 23020G30KT 23/15 A2969 RMK AO1 PK WND
23030/0954 SLP031 T02280150





000
SAUS43 KABR 310903
MTR8D3
METAR K8D3 310856Z AUTO 20011G18KT 22/15 A2972 RMK AO1 SLP039
T02220150 56012





000
SAUS43 KABR 310802
MTR8D3
METAR K8D3 310756Z AUTO 17015G22KT 22/15 A2973 RMK AO1 SLP043
T02220150





000
SAUS43 KABR 310703
MTR8D3
METAR K8D3 310656Z AUTO 20012G22KT 22/15 A2974 RMK AO1 SLP047
T02220150





000
SAUS43 KABR 310703
MTR8D3
METAR K8D3 310656Z AUTO 20012G22KT 22/15 A2974 RMK AO1 SLP047
T02220150





000
SAUS43 KABR 310603
MTR8D3
METAR K8D3 310556Z AUTO 18012KT 21/16 A2975 RMK AO1 SLP053 T02110156
10267 20189 403170161 55001





000
SAUS43 KABR 310603
MTR8D3
METAR K8D3 310556Z AUTO 18012KT 21/16 A2975 RMK AO1 SLP053 T02110156
10267 20189 403170161 55001





000
SAUS43 KABR 310503
MTR8D3
METAR K8D3 310456Z AUTO 20016G25KT 22/16 A2975 RMK AO1 SLP053
T02220161





000
SAUS43 KABR 310403
MTR8D3
METAR K8D3 310356Z AUTO 17007KT 19/17 A2976 RMK AO1 SLP059 T01890167





000
SAUS43 KABR 310303
MTR8D3
METAR K8D3 310256Z AUTO 17007KT 20/18 A2976 RMK AO1 SLP061 T02000178
55000





000
SAUS43 KABR 310203
MTR8D3
METAR K8D3 310156Z AUTO 18007KT 23/18 A2976 RMK AO1 SLP063 T02280183





000
SAUS43 KABR 310203
MTR8D3
METAR K8D3 310156Z AUTO 18007KT 23/18 A2976 RMK AO1 SLP063 T02280183





000
SAUS43 KABR 310103
MTR8D3
METAR K8D3 310056Z AUTO 19010KT 25/19 A2975 RMK AO1 SLP058 T02500189





000
SAUS43 KABR 310103
MTR8D3
METAR K8D3 310056Z AUTO 19010KT 25/19 A2975 RMK AO1 SLP058 T02500189





000
SAUS43 KABR 310003
MTR8D3
METAR K8D3 302356Z AUTO 18009KT 27/20 A2976 RMK AO1 SLP059 T02670200
10317 20267 56008





000
SAUS43 KABR 310003
MTR8D3
METAR K8D3 302356Z AUTO 18009KT 27/20 A2976 RMK AO1 SLP059 T02670200
10317 20267 56008





000
SAUS43 KABR 302303
MTR8D3
METAR K8D3 302256Z AUTO 18011G17KT 29/19 A2976 RMK AO1 SLP060
T02940194





000
SAUS43 KABR 302202
MTR8D3
METAR K8D3 302156Z AUTO 18012KT 31/19 A2977 RMK AO1 SLP062 T03060194





000
SAUS43 KABR 302103
MTR8D3
METAR K8D3 302056Z AUTO 18013KT 32/19 A2978 RMK AO1 SLP062 T03170189
58013





000
SAUS43 KABR 302103
MTR8D3
METAR K8D3 302056Z AUTO 18013KT 32/19 A2978 RMK AO1 SLP062 T03170189
58013





000
SAUS43 KABR 302003
MTR8D3
METAR K8D3 301956Z AUTO 19010KT 32/18 A2980 RMK AO1 SLP069 T03170183





000
SAUS43 KABR 301903
MTR8D3
METAR K8D3 301856Z AUTO 18011KT 31/19 A2981 RMK AO1 SLP074 T03110194





000
SAUS43 KABR 301802
MTR8D3
METAR K8D3 301756Z AUTO 17008KT 30/18 A2982 RMK AO1 SLP079 T03000183
10300 20183 58008





000
SAUS43 KABR 301703
MTR8D3
METAR K8D3 301656Z AUTO 21009KT 28/18 A2984 RMK AO1 SLP086 T02830178





000
SAUS43 KABR 301703
MTR8D3
METAR K8D3 301656Z AUTO 21009KT 28/18 A2984 RMK AO1 SLP086 T02830178





000
SAUS43 KABR 301603
MTR8D3
METAR K8D3 301556Z AUTO 20008KT 27/18 A2984 RMK AO1 SLP088 T02670183





000
SAUS43 KABR 301502
MTR8D3
METAR K8D3 301456Z AUTO 18010KT 23/17 A2985 RMK AO1 SLP090 T02330172
58002





000
SAUS43 KABR 301403
MTR8D3
METAR K8D3 301356Z AUTO 16006KT 19/17 A2986 RMK AO1 SLP096 T01940172





000
SAUS43 KABR 301302
MTR8D3
METAR K8D3 301256Z AUTO 18005KT 19/17 A2986 RMK AO1 SLP095 T01890167





000
SAUS43 KABR 301203
MTR8D3
METAR K8D3 301156Z AUTO 17007KT 18/17 A2985 RMK AO1 SLP092 T01830167
10217 20161 55000





000
SAUS43 KABR 301203
MTR8D3
METAR K8D3 301156Z AUTO 17007KT 18/17 A2985 RMK AO1 SLP092 T01830167
10217 20161 55000





000
SAUS43 KABR 301103
MTR8D3
METAR K8D3 301056Z AUTO 18007KT 18/16 A2985 RMK AO1 SLP091 T01780161





000
SAUS43 KABR 301103
MTR8D3
METAR K8D3 301056Z AUTO 18007KT 18/16 A2985 RMK AO1 SLP091 T01780161





000
SAUS43 KABR 301003
MTR8D3
METAR K8D3 300956Z AUTO 16005KT 17/16 A2985 RMK AO1 SLP091 T01670156





000
SAUS43 KABR 300902
MTR8D3
METAR K8D3 300856Z AUTO 19009KT 150V220 21/17 A2985 RMK AO1 SLP088
T02110172 56010





000
SAUS43 KABR 300802
MTR8D3
METAR K8D3 300756Z AUTO 20006KT 21/18 A2985 RMK AO1 SLP089 T02060178





000
SAUS43 KABR 300703
MTR8D3
METAR K8D3 300656Z AUTO 17006KT 18/17 A2987 RMK AO1 SLP098 T01830172





000
SAUS43 KABR 300603
MTR8D3
METAR K8D3 300556Z AUTO 16006KT 18/17 A2988 RMK AO1 SLP101 T01780167
10250 20178 402890139 56008





000
SAUS43 KABR 300603
MTR8D3
METAR K8D3 300556Z AUTO 16006KT 18/17 A2988 RMK AO1 SLP101 T01780167
10250 20178 402890139 56008





000
SAUS43 KABR 300503
MTR8D3
METAR K8D3 300456Z AUTO 17007KT 18/17 A2989 RMK AO1 SLP104 T01830172





000
SAUS43 KABR 300503
MTR8D3
METAR K8D3 300456Z AUTO 17007KT 18/17 A2989 RMK AO1 SLP104 T01830172





000
SAUS43 KABR 300403
MTR8D3
METAR K8D3 300356Z AUTO 17008KT 19/18 A2990 RMK AO1 SLP107 T01940178





000
SAUS43 KABR 300403
MTR8D3
METAR K8D3 300356Z AUTO 17008KT 19/18 A2990 RMK AO1 SLP107 T01940178





000
SAUS43 KABR 300303
MTR8D3
METAR K8D3 300256Z AUTO 17006KT 21/19 A2991 RMK AO1 SLP112 T02060189
53002





000
SAUS43 KABR 300203
MTR8D3
METAR K8D3 300156Z AUTO 18006KT 21/19 A2991 RMK AO1 SLP115 T02110189





000
SAUS43 KABR 300102
MTR8D3
METAR K8D3 300056Z AUTO 18006KT 23/19 A2990 RMK AO1 SLP113 T02330189





000
SAUS43 KABR 300003
MTR8D3
METAR K8D3 292356Z AUTO 18005KT 26/20 A2990 RMK AO1 SLP112 T02560200
10289 20256 56007





000
SAUS43 KABR 300003
MTR8D3
METAR K8D3 292356Z AUTO 18005KT 26/20 A2990 RMK AO1 SLP112 T02560200
10289 20256 56007





000
SAUS43 KABR 292302
MTR8D3
METAR K8D3 292256Z AUTO 21007KT 28/19 A2990 RMK AO1 SLP111 T02780189





000
SAUS43 KABR 292202
MTR8D3
METAR K8D3 292156Z AUTO 21009KT 29/19 A2991 RMK AO1 SLP113 T02890189





000
SAUS43 KABR 292103
MTR8D3
METAR K8D3 292056Z AUTO 22008KT 28/19 A2992 RMK AO1 SLP116 T02830189
57014





000
SAUS43 KABR 292103
MTR8D3
METAR K8D3 292056Z AUTO 22008KT 28/19 A2992 RMK AO1 SLP116 T02830189
57014





000
SAUS43 KABR 292003
MTR8D3
METAR K8D3 291956Z AUTO 22012KT 28/18 A2994 RMK AO1 SLP121 T02830178





000
SAUS43 KABR 291903
MTR8D3
METAR K8D3 291856Z AUTO 22011KT 27/18 A2995 RMK AO1 SLP127 T02720178





000
SAUS43 KABR 291903
MTR8D3
METAR K8D3 291856Z AUTO 22011KT 27/18 A2995 RMK AO1 SLP127 T02720178





000
SAUS43 KABR 291802
MTR8D3
METAR K8D3 291756Z AUTO 21009KT 27/18 A2997 RMK AO1 SLP131 T02720183
10272 20139 58005





000
SAUS43 KABR 291703
MTR8D3
METAR K8D3 291656Z AUTO 20008KT 26/18 A2997 RMK AO1 SLP135 T02560183





000
SAUS43 KABR 291603
MTR8D3
METAR K8D3 291556Z AUTO 20009KT 25/18 A2998 RMK AO1 SLP135 T02500183





000
SAUS43 KABR 291603
MTR8D3
METAR K8D3 291556Z AUTO 20009KT 25/18 A2998 RMK AO1 SLP135 T02500183





000
SAUS43 KABR 291503
MTR8D3
METAR K8D3 291456Z AUTO 19006G14KT 22/18 A2998 RMK AO1 SLP138
T02220178 50003





000
SAUS43 KABR 291503
MTR8D3
METAR K8D3 291456Z AUTO 19006G14KT 22/18 A2998 RMK AO1 SLP138
T02220178 50003





000
SAUS43 KABR 291402
MTR8D3
METAR K8D3 291356Z AUTO 19005KT 19/17 A2998 RMK AO1 SLP141 T01890172





000
SAUS43 KABR 291303
MTR8D3
METAR K8D3 291256Z AUTO 16004KT 15/14 A2999 RMK AO1 SLP145 T01500144





000
SAUS43 KABR 291202
MTR8D3
METAR K8D3 291156Z AUTO 16004KT 14/14 A2997 RMK AO1 SLP138 T01390139
10167 20139 51008





000
SAUS43 KABR 291202
MTR8D3
METAR K8D3 291156Z AUTO 16004KT 14/14 A2997 RMK AO1 SLP138 T01390139
10167 20139 51008





000
SAUS43 KABR 291102
MTR8D3
METAR K8D3 291056Z AUTO 17005KT 15/14 A2997 RMK AO1 SLP135 T01500144





000
SAUS43 KABR 291102
MTR8D3
METAR K8D3 291056Z AUTO 17005KT 15/14 A2997 RMK AO1 SLP135 T01500144





000
SAUS43 KABR 291003
MTR8D3
METAR K8D3 290956Z AUTO 17006KT 15/14 A2996 RMK AO1 SLP131 T01500144





000
SAUS43 KABR 290903
MTR8D3
METAR K8D3 290856Z AUTO 19006KT 16/15 A2995 RMK AO1 SLP125 T01560150
57005





000
SAUS43 KABR 290903
MTR8D3
METAR K8D3 290856Z AUTO 19006KT 16/15 A2995 RMK AO1 SLP125 T01560150
57005





000
SAUS43 KABR 290802
MTR8D3
METAR K8D3 290756Z AUTO 19006KT 16/15 A2995 RMK AO1 SLP126 T01610150





    US Dept of Commerce
    National Oceanic and Atmospheric Administration
    National Weather Service
    1325 East West Highway
    Silver Spring, MD 20910
    Page Author: NWS Internet Services Team
Disclaimer
Information Quality
Credits
Glossary
Privacy Policy
Freedom of Information Act (FOIA)
About Us
Career Opportunities